^^
Grace C. Lehan Memorial Weather Station Historical Data
Daily Summary for January 21, 2022 Units:  English    Metric   Both
Daily Weekly Monthly Yearly
  High: Low: Average:
Temperature: 18.9 °F 13.1 °F 15.5 °F
Dew Point: 8.7 °F 3.1 °F 5.7 °F
Humidity: 66.3% 63.1% 65%
Wind Speed: 7.9mph 1.4mph 4.9mph
Wind Gust: 15mph - -
Wind- - NW
Pressure: 30.48 in 30.39 in -
Precipitation: 0.00 in    
 
 
Tabular Data for January 21, 2022
Time Temperature Dew Point Pressure Wind Wind Speed Wind Gust Humidity Rainfall Rate (Hourly) solar
00:04 18.9 °F 8.7 °F 30.40 in NW 7.3 mph 13 mph 64% 0.00 in 0 W/m2
00:09 18.7 °F 8.6 °F 30.40 in NW 4.6 mph 13 mph 64% 0.00 in 0 W/m2
00:14 18.6 °F 8.5 °F 30.40 in NW 4.9 mph 13 mph 64% 0.00 in 0 W/m2
00:19 18.5 °F 8.6 °F 30.40 in NW 5.2 mph 13 mph 64.8% 0.00 in 0 W/m2
00:24 18.3 °F 8.6 °F 30.40 in NW 1.9 mph 13 mph 65% 0.00 in 0 W/m2
00:29 18.2 °F 8.5 °F 30.39 in NNW 2.6 mph 13 mph 65.3% 0.00 in 0 W/m2
00:34 18.1 °F 8.3 °F 30.39 in NW 1.4 mph 13 mph 65% 0.00 in 0 W/m2
00:39 17.9 °F 8.4 °F 30.39 in NNW 4.2 mph 10 mph 65.7% 0.00 in 0 W/m2
00:44 17.8 °F 8.1 °F 30.40 in NW 6.9 mph 14 mph 65.2% 0.00 in 0 W/m2
00:49 17.7 °F 7.9 °F 30.40 in NW 5.9 mph 14 mph 65% 0.00 in 0 W/m2
00:54 17.6 °F 7.8 °F 30.40 in NW 6.1 mph 14 mph 65% 0.00 in 0 W/m2
00:59 17.5 °F 7.7 °F 30.40 in NW 5.1 mph 14 mph 65% 0.00 in 0 W/m2
01:04 17.3 °F 7.6 °F 30.40 in NW 6.6 mph 14 mph 65% 0.00 in 0 W/m2
01:09 17.2 °F 7.6 °F 30.40 in NW 6.9 mph 15 mph 65.5% 0.00 in 0 W/m2
01:14 17.1 °F 7.5 °F 30.40 in NW 6.3 mph 15 mph 65.4% 0.00 in 0 W/m2
01:19 16.9 °F 7.2 °F 30.40 in NW 5.6 mph 15 mph 65% 0.00 in 0 W/m2
01:24 16.8 °F 7.3 °F 30.40 in NW 3.6 mph 15 mph 65.5% 0.00 in 0 W/m2
01:29 16.7 °F 7.4 °F 30.40 in NW 3 mph 15 mph 66% 0.00 in 0 W/m2
01:34 16.6 °F 7.3 °F 30.41 in NW 5.6 mph 15 mph 66% 0.00 in 0 W/m2
01:39 16.6 °F 7.2 °F 30.41 in NW 5.3 mph 13 mph 66% 0.00 in 0 W/m2
01:44 16.5 °F 7.2 °F 30.41 in NW 3.9 mph 13 mph 66.2% 0.00 in 0 W/m2
01:49 16.4 °F 7.1 °F 30.41 in NNW 6 mph 13 mph 66.3% 0.00 in 0 W/m2
01:54 16.3 °F 6.9 °F 30.41 in NNW 6.5 mph 14 mph 66% 0.00 in 0 W/m2
01:59 16.2 °F 6.7 °F 30.41 in NNW 4.2 mph 14 mph 65.7% 0.00 in 0 W/m2
02:04 16.1 °F 6.8 °F 30.41 in NW 4.5 mph 14 mph 66% 0.00 in 0 W/m2
02:09 16 °F 6.7 °F 30.41 in NW 4.6 mph 15 mph 66% 0.00 in 0 W/m2
02:14 16 °F 6.6 °F 30.41 in NW 7 mph 15 mph 66% 0.00 in 0 W/m2
02:19 15.9 °F 6.6 °F 30.42 in NNW 5.2 mph 15 mph 66% 0.00 in 0 W/m2
02:24 15.8 °F 6.3 °F 30.42 in NNW 4.9 mph 15 mph 65.5% 0.00 in 0 W/m2
02:29 15.7 °F 6.4 °F 30.42 in NW 3 mph 15 mph 65.8% 0.00 in 0 W/m2
02:34 15.7 °F 6 °F 30.42 in NW 4.5 mph 15 mph 65% 0.00 in 0 W/m2
02:39 15.6 °F 6 °F 30.42 in NW 5.2 mph 13 mph 65% 0.00 in 0 W/m2
02:44 15.5 °F 5.8 °F 30.42 in NNW 6.8 mph 15 mph 64.8% 0.00 in 0 W/m2
02:49 15.5 °F 5.6 °F 30.42 in NNW 6.5 mph 15 mph 64.2% 0.00 in 0 W/m2
02:54 15.4 °F 5.7 °F 30.42 in NW 5.6 mph 15 mph 65% 0.00 in 0 W/m2
02:59 15.3 °F 5.7 °F 30.42 in NNW 6 mph 15 mph 65% 0.00 in 0 W/m2
03:04 15.3 °F 5.3 °F 30.43 in NNW 5.3 mph 15 mph 64.1% 0.00 in 0 W/m2
03:09 15.2 °F 5.2 °F 30.42 in NW 7.4 mph 15 mph 64% 0.00 in 0 W/m2
03:14 15.2 °F 5.2 °F 30.42 in NNW 2.9 mph 15 mph 64% 0.00 in 0 W/m2
03:19 15.1 °F 5.4 °F 30.42 in NNW 4.9 mph 15 mph 64.9% 0.00 in 0 W/m2
03:24 15 °F 5.1 °F 30.42 in NW 4.3 mph 15 mph 64.1% 0.00 in 0 W/m2
03:29 14.9 °F 4.9 °F 30.42 in NW 7.9 mph 15 mph 64% 0.00 in 0 W/m2
03:34 14.8 °F 4.8 °F 30.42 in NNW 3.7 mph 15 mph 64% 0.00 in 0 W/m2
03:39 14.8 °F 4.8 °F 30.42 in NW 6.6 mph 13 mph 64% 0.00 in 0 W/m2
03:44 14.7 °F 4.7 °F 30.42 in NNW 4.3 mph 15 mph 64% 0.00 in 0 W/m2
03:49 14.6 °F 4.7 °F 30.42 in NW 4.8 mph 15 mph 64% 0.00 in 0 W/m2
03:54 14.6 °F 4.6 °F 30.42 in NW 4.2 mph 15 mph 64% 0.00 in 0 W/m2
03:59 14.5 °F 4.5 °F 30.43 in NW 4.2 mph 15 mph 64% 0.00 in 0 W/m2
04:00 14.4 °F 4.5 °F 30.43 in NW 3 mph 15 mph 64% 0.00 in 0 W/m2
04:09 14.3 °F 4.4 °F 30.44 in NW 5.2 mph 10 mph 64% 0.00 in 0 W/m2
04:14 14.2 °F 4.2 °F 30.44 in NW 2.5 mph 11 mph 63.6% 0.00 in 0 W/m2
04:19 14.1 °F 4.2 °F 30.44 in NNW 5.5 mph 11 mph 63.9% 0.00 in 0 W/m2
04:24 14 °F 3.8 °F 30.44 in NW 5.3 mph 15 mph 63.1% 0.00 in 0 W/m2
04:29 14 °F 4.2 °F 30.44 in NNW 3.1 mph 15 mph 64.5% 0.00 in 0 W/m2
04:34 13.9 °F 4 °F 30.44 in NW 4.3 mph 15 mph 64% 0.00 in 0 W/m2
04:39 13.9 °F 4 °F 30.44 in NNW 3.6 mph 12 mph 64% 0.00 in 0 W/m2
04:44 13.8 °F 3.9 °F 30.44 in NW 3.8 mph 12 mph 64% 0.00 in 0 W/m2
04:49 13.7 °F 3.8 °F 30.44 in NW 4.8 mph 12 mph 64% 0.00 in 0 W/m2
04:54 13.7 °F 3.8 °F 30.44 in NW 4.5 mph 12 mph 64% 0.00 in 0 W/m2
04:59 13.6 °F 3.7 °F 30.45 in NNW 3.6 mph 12 mph 64% 0.00 in 0 W/m2
05:04 13.6 °F 3.7 °F 30.45 in NW 4.6 mph 12 mph 64% 0.00 in 0 W/m2
05:09 13.5 °F 3.6 °F 30.45 in NW 4.9 mph 14 mph 64% 0.00 in 0 W/m2
05:14 13.5 °F 3.6 °F 30.45 in NNW 5.8 mph 14 mph 64% 0.00 in 0 W/m2
05:19 13.5 °F 3.3 °F 30.45 in NNW 4.6 mph 14 mph 63.2% 0.00 in 0 W/m2
05:24 13.4 °F 3.4 °F 30.45 in NW 3.7 mph 14 mph 63.7% 0.00 in 0 W/m2
05:29 13.4 °F 3.5 °F 30.46 in NNW 4.5 mph 14 mph 64% 0.00 in 0 W/m2
05:34 13.4 °F 3.2 °F 30.46 in NNW 5.3 mph 14 mph 63.1% 0.00 in 0 W/m2
05:39 13.4 °F 3.2 °F 30.47 in NNW 4.6 mph 13 mph 63.3% 0.00 in 0 W/m2
05:44 13.3 °F 3.3 °F 30.47 in NNW 5.7 mph 14 mph 63.7% 0.00 in 0 W/m2
05:49 13.2 °F 3.3 °F 30.47 in NNW 6.7 mph 14 mph 64% 0.00 in 0 W/m2
05:54 13.2 °F 3.1 °F 30.48 in NNW 4.1 mph 14 mph 63.5% 0.00 in 0 W/m2
05:58 13.1 °F 3.4 °F 30.48 in NW 2.5 mph 14 mph 64.4% 0.00 in 0 W/m2
Hartford County Weather
Compliments of Weather Underground - 2 mb